Time;durP1;ratioP1;P1;durP2;ratioP2;P2;SDS_P1;SDS_P2;PMS_P1;PMS_P2;Temp;Humidity;BMP_temperature;BMP_pressure;BME280_temperature;BME280_humidity;BME280_pressure;Samples;Min_cycle;Max_cycle;Signal;HPM_P1;HPM_P2
2022/02/13 00:01:20;;;;;;;10.70;5.73;;;1.80;67.10;;;2.31;55.40;98187.00;4949045;29;20047;-35
2022/02/13 00:03:48;;;;;;;9.33;5.43;;;1.80;67.00;;;2.32;55.30;98192.13;4949587;29;20245;-35
2022/02/13 00:06:16;;;;;;;10.70;5.53;;;1.80;67.00;;;2.29;55.63;98192.34;4949592;29;20253;-35
2022/02/13 00:08:44;;;;;;;10.13;5.50;;;1.80;67.30;;;2.29;55.38;98192.34;4948564;28;20851;-35
2022/02/13 00:11:16;;;;;;;12.47;6.43;;;1.80;67.30;;;2.31;55.57;98181.75;4949566;28;20349;-35
2022/02/13 00:13:47;;;;;;;9.33;5.93;;;1.80;67.20;;;2.33;55.57;98182.47;4949409;29;20073;-35
2022/02/13 00:16:16;;;;;;;10.27;5.33;;;1.80;67.10;;;2.32;55.56;98170.28;4949398;28;20047;-35
2022/02/13 00:18:45;;;;;;;10.53;5.73;;;1.80;67.00;;;2.32;55.46;98168.47;4950031;29;20055;-35
2022/02/13 00:21:33;;;;;;;10.30;5.77;;;1.80;67.10;;;2.31;55.53;98166.81;4948518;29;20050;-35
2022/02/13 00:24:02;;;;;;;9.67;6.33;;;1.80;67.30;;;2.29;55.93;98158.19;4948710;29;20065;-35
2022/02/13 00:26:30;;;;;;;11.90;5.37;;;1.80;67.40;;;2.29;56.10;98157.34;4948913;29;20063;-35
2022/02/13 00:28:57;;;;;;;9.47;5.13;;;1.80;67.40;;;2.28;56.04;98153.03;4948758;28;20065;-35
2022/02/13 00:31:25;;;;;;;7.83;6.30;;;1.80;67.50;;;2.30;55.82;98154.59;4948490;29;20057;-35
2022/02/13 00:33:55;;;;;;;8.27;5.13;;;1.90;67.60;;;2.29;55.65;98150.31;4948278;28;20067;-35
2022/02/13 00:36:23;;;;;;;10.37;5.57;;;1.90;67.30;;;2.33;55.67;98154.41;4948558;28;20420;-35
2022/02/13 00:38:51;;;;;;;8.90;5.70;;;2.00;67.10;;;2.37;55.91;98147.19;4949777;29;20043;-35
2022/02/13 00:41:18;;;;;;;7.83;5.00;;;2.00;67.10;;;2.39;55.82;98145.31;4948411;29;20062;-35
2022/02/13 00:43:46;;;;;;;10.63;5.80;;;2.00;66.70;;;2.40;55.75;98144.34;4948693;29;20049;-35
2022/02/13 00:46:14;;;;;;;8.33;5.80;;;2.00;66.70;;;2.40;55.85;98139.09;4948312;29;20057;-35
2022/02/13 00:48:43;;;;;;;10.80;6.43;;;2.10;66.80;;;2.40;55.96;98136.47;4949434;28;20065;-35
2022/02/13 00:51:11;;;;;;;11.33;6.43;;;2.00;66.70;;;2.40;55.93;98139.09;4963524;28;20067;-35
2022/02/13 00:53:39;;;;;;;9.73;5.53;;;2.00;66.70;;;2.39;56.02;98136.59;4948642;29;20152;-35
2022/02/13 00:56:06;;;;;;;9.20;5.33;;;2.00;66.80;;;2.36;55.91;98134.97;4947701;29;20371;-35
2022/02/13 00:58:35;;;;;;;8.97;5.90;;;2.00;67.10;;;2.35;56.24;98136.75;4949900;29;20050;-35
2022/02/13 01:01:04;;;;;;;10.33;5.87;;;2.00;67.10;;;2.34;56.06;98140.31;4948406;29;20055;-35
2022/02/13 01:03:32;;;;;;;8.63;5.87;;;2.00;67.10;;;2.35;55.94;98135.94;4948665;29;20047;-35
2022/02/13 01:06:01;;;;;;;10.70;5.37;;;2.00;67.20;;;2.36;56.37;98143.72;4948158;29;20047;-35
2022/02/13 01:08:29;;;;;;;7.57;5.77;;;2.00;67.30;;;2.36;56.55;98138.47;4948596;29;20055;-35
2022/02/13 01:10:57;;;;;;;10.13;5.77;;;2.00;67.20;;;2.34;56.24;98132.44;4948076;29;20057;-35
2022/02/13 01:13:27;;;;;;;10.30;5.57;;;2.00;67.30;;;2.32;56.07;98134.31;4947661;29;20113;-35
2022/02/13 01:15:56;;;;;;;7.83;5.13;;;2.00;67.50;;;2.34;56.52;98128.97;4948518;28;20068;-35
2022/02/13 01:18:24;;;;;;;7.73;5.23;;;2.00;67.60;;;2.33;56.03;98122.88;4948616;29;20040;-35
2022/02/13 01:20:52;;;;;;;9.17;5.73;;;2.00;67.70;;;2.36;56.47;98124.47;4948132;29;20049;-35
2022/02/13 01:23:20;;;;;;;8.70;6.07;;;2.00;67.60;;;2.39;56.42;98131.31;4950964;28;20066;-35
2022/02/13 01:25:48;;;;;;;9.43;5.87;;;2.00;67.40;;;2.40;56.45;98133.00;4952225;29;20253;-35
2022/02/13 01:28:16;;;;;;;7.83;5.60;;;2.10;67.50;;;2.39;56.44;98123.44;4952068;29;20255;-35
2022/02/13 01:30:46;;;;;;;7.57;5.60;;;2.00;67.60;;;2.39;55.99;98129.53;4952431;29;20051;-35
2022/02/13 01:33:14;;;;;;;12.57;6.03;;;2.00;67.70;;;2.35;56.41;98126.25;4951266;29;20284;-35
2022/02/13 01:35:42;;;;;;;11.47;5.87;;;1.90;68.00;;;2.32;56.30;98125.59;4952338;28;20519;-35
2022/02/13 01:38:09;;;;;;;12.70;6.00;;;1.90;68.20;;;2.30;56.22;98124.84;4952050;29;20073;-35
2022/02/13 01:40:37;;;;;;;8.83;6.23;;;1.90;68.10;;;2.27;56.37;98127.66;4953373;29;20051;-35
2022/02/13 01:43:05;;;;;;;13.30;6.57;;;1.80;68.40;;;2.24;56.41;98128.72;4951943;28;20059;-35
2022/02/13 01:45:35;;;;;;;10.80;5.87;;;1.80;68.50;;;2.20;56.46;98121.97;4952220;29;20077;-35
2022/02/13 01:48:08;;;;;;;8.87;5.90;;;1.70;68.60;;;2.19;56.87;98129.94;4951601;29;20057;-35
2022/02/13 01:50:38;;;;;;;9.73;5.82;;;1.70;68.60;;;2.18;56.88;98123.84;4952848;28;20055;-35
2022/02/13 01:53:08;;;;;;;9.57;5.67;;;1.70;68.80;;;2.17;56.54;98123.03;4952520;28;20257;-35
2022/02/13 01:55:37;;;;;;;11.47;6.17;;;1.70;68.80;;;2.15;56.81;98119.66;4951112;29;20077;-35
2022/02/13 01:58:06;;;;;;;8.53;5.87;;;1.70;69.00;;;2.15;56.86;98116.16;4952343;29;20300;-35
2022/02/13 02:00:33;;;;;;;8.93;5.83;;;1.70;69.10;;;2.12;57.14;98119.00;4951795;29;20051;-35
2022/02/13 02:03:01;;;;;;;9.77;5.50;;;1.60;69.40;;;2.10;56.74;98119.09;4951102;29;20210;-35
2022/02/13 02:05:30;;;;;;;9.43;5.53;;;1.60;69.40;;;2.11;56.79;98119.91;4952020;29;20357;-35
2022/02/13 02:07:58;;;;;;;9.40;5.60;;;1.60;69.40;;;2.11;56.66;98117.28;4950251;29;20051;-35
2022/02/13 02:10:25;;;;;;;10.83;6.13;;;1.60;69.60;;;2.11;57.17;98120.78;4951923;29;20099;-35
2022/02/13 02:12:54;;;;;;;10.27;5.47;;;1.60;69.50;;;2.12;56.79;98119.00;4949295;29;20055;-35
2022/02/13 02:15:22;;;;;;;9.50;5.83;;;1.70;69.50;;;2.12;57.19;98113.75;4951169;29;20070;-35
2022/02/13 02:17:49;;;;;;;9.50;6.17;;;1.60;69.60;;;2.12;56.98;98113.75;4952041;28;20341;-35
2022/02/13 02:20:17;;;;;;;8.10;5.10;;;1.60;69.60;;;2.12;57.16;98108.50;4951290;29;20043;-34
2022/02/13 02:22:53;;;;;;;6.90;4.90;;;1.70;69.70;;;2.08;57.27;98102.56;4951219;29;20061;-35
2022/02/13 02:25:21;;;;;;;12.90;5.83;;;1.60;69.90;;;2.08;57.03;98104.38;4949165;29;20057;-35
2022/02/13 02:27:49;;;;;;;10.53;5.77;;;1.60;70.00;;;2.06;57.46;98099.22;4952509;29;20507;-35
2022/02/13 02:30:16;;;;;;;8.73;5.60;;;1.60;70.10;;;2.06;57.77;98098.38;4951832;28;20065;-35
2022/02/13 02:32:44;;;;;;;8.40;5.47;;;1.60;70.40;;;2.04;57.73;98095.00;4950810;28;20257;-35
2022/02/13 02:35:12;;;;;;;7.87;4.60;;;1.50;70.40;;;2.01;57.35;98088.13;4950651;29;20345;-35
2022/02/13 02:37:40;;;;;;;9.40;4.67;;;1.60;70.40;;;2.03;57.81;98088.06;4951134;29;20355;-35
2022/02/13 02:40:08;;;;;;;7.53;5.07;;;1.60;70.40;;;2.05;57.85;98086.16;4951781;29;20059;-35
2022/02/13 02:42:36;;;;;;;10.13;5.70;;;1.60;70.30;;;2.05;58.06;98081.75;4951207;29;20057;-35
2022/02/13 02:45:05;;;;;;;7.83;4.90;;;1.60;70.30;;;2.06;57.77;98082.63;4950824;29;20050;-35
2022/02/13 02:47:32;;;;;;;7.90;5.27;;;1.60;70.30;;;2.06;57.78;98082.63;4951794;29;20050;-35
2022/02/13 02:50:00;;;;;;;7.40;5.07;;;1.70;70.50;;;2.08;57.69;98078.94;4950385;29;20252;-35
2022/02/13 02:52:28;;;;;;;8.57;5.10;;;1.70;70.40;;;2.06;57.95;98078.19;4951132;29;20353;-35
2022/02/13 02:54:56;;;;;;;7.37;4.67;;;1.70;70.70;;;2.07;57.67;98079.88;4950904;28;20073;-35
2022/02/13 02:57:24;;;;;;;9.10;4.57;;;1.70;70.80;;;2.09;57.71;98074.53;4950824;29;20061;-35
2022/02/13 02:59:52;;;;;;;9.47;5.10;;;1.70;70.80;;;2.10;57.85;98074.44;4949587;29;20252;-35
2022/02/13 03:02:20;;;;;;;8.77;4.93;;;1.70;70.80;;;2.11;58.16;98064.75;4950411;29;20113;-35
2022/02/13 03:04:48;;;;;;;7.13;4.50;;;1.70;71.20;;;2.07;57.71;98061.47;4950743;28;20055;-35
2022/02/13 03:07:15;;;;;;;8.53;4.83;;;1.60;71.20;;;2.08;57.80;98060.56;4950786;28;20062;-34
2022/02/13 03:09:43;;;;;;;9.47;4.93;;;1.60;71.10;;;2.07;58.19;98056.22;4949506;29;20045;-35
2022/02/13 03:12:11;;;;;;;6.73;5.03;;;1.60;71.60;;;2.06;58.39;98054.56;4950884;28;20047;-35
2022/02/13 03:14:39;;;;;;;7.07;4.90;;;1.60;71.30;;;2.06;57.92;98054.56;4950199;28;20046;-35
2022/02/13 03:17:08;;;;;;;8.47;4.80;;;1.60;71.40;;;2.06;58.17;98054.56;4950398;28;20057;-35
2022/02/13 03:19:36;;;;;;;10.63;5.30;;;1.60;71.50;;;2.06;58.58;98049.31;4950475;28;20059;-35
2022/02/13 03:22:05;;;;;;;6.50;4.73;;;1.60;71.80;;;2.05;58.42;98049.41;4948947;29;20059;-35
2022/02/13 03:24:33;;;;;;;8.63;4.87;;;1.60;72.00;;;2.04;58.66;98050.34;4950948;28;20073;-35
2022/02/13 03:27:03;;;;;;;7.57;4.33;;;1.60;72.30;;;2.05;58.66;98062.53;4950860;29;20053;-35
2022/02/13 03:29:31;;;;;;;6.80;4.70;;;1.60;72.10;;;2.06;58.52;98053.72;4949312;29;20047;-35
2022/02/13 03:31:58;;;;;;;9.27;4.70;;;1.60;72.20;;;2.04;58.50;98056.44;4949767;29;20047;-35
2022/02/13 03:34:26;;;;;;;6.70;4.20;;;1.60;72.30;;;2.05;58.33;98047.59;4949896;29;20047;-35
2022/02/13 03:36:54;;;;;;;5.73;4.23;;;1.60;72.30;;;2.04;58.58;98059.06;4951261;28;20051;-35
2022/02/13 03:39:23;;;;;;;7.30;4.80;;;1.60;72.50;;;2.03;58.63;98046.88;4950243;28;20375;-35
2022/02/13 03:41:52;;;;;;;9.90;4.07;;;1.60;72.60;;;2.03;59.06;98044.25;4950107;29;20055;-35
2022/02/13 03:44:19;;;;;;;9.70;5.17;;;1.60;72.60;;;2.06;58.93;98045.84;4949069;28;20043;-35
2022/02/13 03:46:47;;;;;;;8.27;4.97;;;1.60;72.60;;;2.04;58.62;98043.31;4948100;29;20344;-35
2022/02/13 03:49:15;;;;;;;12.70;4.93;;;1.60;72.60;;;2.05;59.32;98041.50;4950195;29;20252;-35
2022/02/13 03:51:43;;;;;;;8.90;4.87;;;1.60;73.00;;;2.04;58.96;98042.47;4949952;28;20063;-35
2022/02/13 03:54:11;;;;;;;10.23;4.33;;;1.60;72.90;;;2.05;58.81;98041.50;4949953;29;20063;-35
2022/02/13 03:56:38;;;;;;;8.00;4.60;;;1.60;73.80;;;2.07;58.83;98037.00;4949305;29;20049;-35
2022/02/13 03:59:06;;;;;;;8.07;4.20;;;1.60;73.00;;;2.06;58.96;98033.53;4949804;29;20039;-35
2022/02/13 04:01:35;;;;;;;6.87;3.60;;;1.60;72.90;;;2.07;59.07;98039.63;4949597;29;20051;-34
2022/02/13 04:04:03;;;;;;;8.50;4.40;;;1.60;72.80;;;2.06;59.44;98049.31;4949871;29;20352;-34
2022/02/13 04:06:31;;;;;;;6.73;4.40;;;1.60;73.80;;;2.07;58.86;98039.63;4948996;29;20074;-34
2022/02/13 04:08:59;;;;;;;11.37;4.43;;;1.60;73.00;;;2.06;59.01;98040.59;4950250;28;20428;-34
2022/02/13 04:11:27;;;;;;;6.73;4.33;;;1.60;73.10;;;2.04;59.40;98040.69;4950331;29;20055;-34
2022/02/13 04:13:55;;;;;;;7.40;4.07;;;1.60;73.40;;;2.05;58.83;98044.97;4949858;29;20054;-34
2022/02/13 04:16:22;;;;;;;7.40;4.67;;;1.60;73.60;;;2.04;59.47;98048.56;4949041;28;20059;-34
2022/02/13 04:18:50;;;;;;;8.23;4.70;;;1.60;73.60;;;2.06;59.57;98051.09;4949687;28;20269;-34
2022/02/13 04:21:19;;;;;;;8.60;4.03;;;1.60;73.60;;;2.05;59.55;98044.16;4949223;28;20424;-34
2022/02/13 04:23:46;;;;;;;7.07;4.03;;;1.70;74.00;;;2.11;59.35;98046.38;4948370;28;20062;-34
2022/02/13 04:26:14;;;;;;;8.27;4.33;;;1.70;73.80;;;2.16;59.30;98054.81;4949888;28;20047;-34
2022/02/13 04:28:42;;;;;;;6.80;3.47;;;1.80;73.60;;;2.18;59.37;98052.94;4949137;29;20054;-34
2022/02/13 04:31:11;;;;;;;6.83;4.80;;;1.80;73.60;;;2.21;59.53;98052.75;4949968;28;20059;-34
2022/02/13 04:33:38;;;;;;;6.30;3.67;;;1.80;73.50;;;2.23;59.39;98047.38;4948667;29;20054;-35
2022/02/13 04:36:08;;;;;;;8.70;4.47;;;1.90;73.40;;;2.24;59.46;98049.91;4947955;29;20180;-34
2022/02/13 04:38:37;;;;;;;5.57;4.30;;;1.90;73.50;;;2.28;59.29;98053.19;4948294;29;20054;-34
2022/02/13 04:41:06;;;;;;;6.50;3.60;;;1.90;73.40;;;2.34;59.41;98052.78;4948597;29;20057;-34
2022/02/13 04:43:34;;;;;;;7.50;4.07;;;2.00;73.20;;;2.35;59.58;98049.22;4948637;29;20061;-34
2022/02/13 04:46:01;;;;;;;10.00;3.80;;;2.00;73.20;;;2.38;59.54;98045.53;4949122;29;20051;-34
2022/02/13 04:48:29;;;;;;;6.57;3.97;;;2.00;73.10;;;2.37;59.27;98042.06;4947215;29;20051;-34
2022/02/13 04:50:57;;;;;;;5.97;3.90;;;2.00;73.20;;;2.35;59.77;98047.41;4948488;29;20081;-34
2022/02/13 04:53:27;;;;;;;6.73;4.07;;;2.00;73.40;;;2.34;59.61;98040.47;4947518;29;20536;-34
2022/02/13 04:55:57;;;;;;;8.40;3.87;;;2.00;73.80;;;2.31;59.79;98031.97;4948448;28;20062;-34
2022/02/13 04:58:25;;;;;;;10.00;4.67;;;1.90;74.10;;;2.31;59.75;98024.91;4948218;29;20051;-34
2022/02/13 05:00:52;;;;;;;7.83;3.63;;;1.90;74.00;;;2.32;59.92;98021.34;4948995;29;20073;-34
2022/02/13 05:03:22;;;;;;;6.60;3.70;;;2.00;73.90;;;2.35;59.96;98017.69;4946256;29;20050;-34
2022/02/13 05:05:51;;;;;;;8.73;4.50;;;2.10;73.80;;;2.39;60.28;98019.16;4948005;28;20055;-34
2022/02/13 05:08:20;;;;;;;6.17;3.63;;;2.10;73.60;;;2.42;60.14;98011.06;4947963;29;20226;-34
2022/02/13 05:10:48;;;;;;;6.07;3.60;;;2.20;73.40;;;2.46;59.94;98014.34;4948889;28;20061;-35
2022/02/13 05:13:16;;;;;;;7.97;4.30;;;2.30;73.40;;;2.49;60.16;98014.13;4947378;28;20063;-34
2022/02/13 05:15:44;;;;;;;6.00;3.77;;;2.30;73.40;;;2.55;60.18;98014.56;4948791;29;20047;-34
2022/02/13 05:18:12;;;;;;;5.90;3.80;;;2.40;73.00;;;2.58;59.95;98005.66;4949409;28;20059;-34
2022/02/13 05:20:39;;;;;;;6.27;3.27;;;2.40;73.70;;;2.61;60.20;98007.22;4948977;28;20131;-34
2022/02/13 05:23:07;;;;;;;6.63;4.00;;;2.50;72.80;;;2.64;60.09;98007.03;4964065;28;20059;-34
2022/02/13 05:25:36;;;;;;;8.30;3.77;;;2.60;72.50;;;2.66;60.18;97998.09;4947068;29;20373;-34
2022/02/13 05:28:04;;;;;;;6.00;3.80;;;2.60;72.40;;;2.73;59.99;98001.13;4948949;28;20341;-35
2022/02/13 05:30:31;;;;;;;6.53;3.83;;;2.70;72.40;;;2.79;59.91;98000.72;4947984;29;20085;-34
2022/02/13 05:32:59;;;;;;;5.83;3.80;;;2.70;72.00;;;2.83;59.89;97999.59;4948008;29;20061;-34
2022/02/13 05:35:27;;;;;;;6.47;3.83;;;2.80;71.80;;;2.87;59.66;97994.94;4948129;29;20468;-34
2022/02/13 05:37:55;;;;;;;6.53;4.23;;;2.80;71.60;;;2.89;59.64;97993.91;4948162;29;20066;-34
2022/02/13 05:40:23;;;;;;;5.07;3.77;;;2.80;71.40;;;2.91;59.33;97989.38;4947905;29;20057;-34
2022/02/13 05:42:51;;;;;;;7.17;4.10;;;2.80;71.30;;;2.90;59.47;97990.31;4948484;28;20051;-34
2022/02/13 05:45:19;;;;;;;9.07;4.43;;;2.80;71.30;;;2.94;59.45;97986.53;4946658;28;20061;-34
2022/02/13 05:47:46;;;;;;;7.87;4.63;;;2.80;71.20;;;2.98;59.59;97989.78;4948657;29;20049;-34
2022/02/13 05:50:14;;;;;;;5.67;3.47;;;2.80;71.10;;;2.98;59.56;97991.59;4948206;29;20051;-34
2022/02/13 05:52:44;;;;;;;9.30;4.47;;;2.90;71.10;;;2.99;59.38;97988.03;4948448;29;20055;-34
2022/02/13 05:55:12;;;;;;;6.93;3.97;;;2.90;71.00;;;3.00;59.49;97981.81;4948561;29;20065;-34
2022/02/13 05:57:44;;;;;;;7.43;4.07;;;2.90;70.90;;;3.00;59.16;97982.63;4946305;29;20047;-34
2022/02/13 06:00:13;;;;;;;7.87;4.70;;;2.80;71.00;;;2.99;59.14;97983.59;4947183;29;20053;-34
2022/02/13 06:02:41;;;;;;;9.03;3.87;;;2.90;71.20;;;2.99;59.07;97970.44;4948178;29;20783;-34
2022/02/13 06:05:09;;;;;;;7.60;4.57;;;2.80;71.20;;;3.00;59.27;97974.75;4947731;28;20051;-34
2022/02/13 06:07:42;;;;;;;7.17;4.07;;;2.80;71.40;;;2.99;59.18;97973.06;4948692;28;20061;-34
2022/02/13 06:10:11;;;;;;;6.83;4.00;;;2.80;71.50;;;3.00;59.37;97966.00;4951540;29;20273;-34
2022/02/13 06:12:40;;;;;;;7.27;4.30;;;2.80;71.50;;;3.03;59.01;97968.44;4951099;29;20055;-34
2022/02/13 06:15:09;;;;;;;6.43;4.20;;;2.80;71.50;;;3.02;59.10;97964.97;4952299;29;20055;-34
2022/02/13 06:17:37;;;;;;;5.93;4.60;;;2.80;71.60;;;2.99;59.07;97962.56;4950649;29;20346;-34
2022/02/13 06:20:06;;;;;;;6.83;4.37;;;2.70;71.80;;;2.99;59.40;97953.84;4951487;29;20403;-34
2022/02/13 06:22:34;;;;;;;7.67;4.07;;;2.70;72.10;;;2.99;59.10;97957.28;4951689;29;20049;-34
2022/02/13 06:25:03;;;;;;;5.83;4.70;;;2.70;72.30;;;3.00;59.67;97961.59;4951740;29;20043;-34
2022/02/13 06:27:31;;;;;;;8.37;4.57;;;2.70;72.50;;;2.99;59.59;97959.94;4951765;29;20249;-34
2022/02/13 06:29:59;;;;;;;11.13;5.47;;;2.70;72.60;;;3.01;59.39;97957.19;4951736;29;20055;-34
2022/02/13 06:32:26;;;;;;;8.10;4.23;;;2.70;72.70;;;3.01;59.19;97957.19;4951465;29;20072;-34
2022/02/13 06:34:54;;;;;;;8.60;4.63;;;2.70;72.60;;;3.01;59.31;97955.41;4950810;28;20051;-34
2022/02/13 06:37:22;;;;;;;8.23;4.73;;;2.70;72.50;;;3.02;59.29;97951.81;4950684;29;20067;-34
2022/02/13 06:39:49;;;;;;;8.77;5.27;;;2.70;72.20;;;3.01;59.44;97947.50;4951292;29;20229;-34
2022/02/13 06:42:17;;;;;;;12.43;6.73;;;2.70;72.10;;;3.02;59.32;97949.16;4951171;29;20062;-34
2022/02/13 06:44:45;;;;;;;12.50;6.43;;;2.70;72.20;;;3.03;59.25;97942.16;4950935;29;20053;-34
2022/02/13 06:47:13;;;;;;;12.10;5.77;;;2.70;72.20;;;3.02;59.34;97945.72;4951415;28;20059;-34
2022/02/13 06:49:41;;;;;;;10.43;6.23;;;2.70;73.10;;;3.00;59.47;97950.25;4951206;29;20420;-34
2022/02/13 06:52:09;;;;;;;10.70;5.43;;;2.70;72.50;;;2.98;59.22;97949.50;4950877;29;20256;-34
2022/02/13 06:54:36;;;;;;;9.77;5.57;;;2.60;72.60;;;2.97;59.38;97948.66;4950251;29;20063;-34
2022/02/13 06:57:05;;;;;;;9.43;4.70;;;2.60;72.70;;;2.98;59.42;97955.59;4950999;29;20236;-34
2022/02/13 06:59:33;;;;;;;8.90;5.33;;;2.70;72.80;;;2.98;59.43;97952.13;4950122;29;20042;-34
2022/02/13 07:02:00;;;;;;;8.70;5.87;;;2.60;72.70;;;2.96;59.57;97946.97;4951707;28;20056;-34
2022/02/13 07:04:28;;;;;;;10.40;5.87;;;2.70;72.80;;;2.95;59.67;97947.94;4950416;29;20043;-34
2022/02/13 07:07:00;;;;;;;7.70;5.53;;;2.70;73.00;;;2.94;59.79;97949.69;4951067;29;20049;-34
2022/02/13 07:09:28;;;;;;;7.17;5.23;;;2.60;73.00;;;2.94;59.98;97954.97;4950953;29;20067;-34
2022/02/13 07:11:58;;;;;;;10.73;5.80;;;2.60;73.10;;;2.95;59.80;97953.19;4951070;28;20059;-34
2022/02/13 07:14:27;;;;;;;7.77;5.23;;;2.70;73.20;;;2.93;60.05;97947.19;4949646;29;20253;-34
2022/02/13 07:16:55;;;;;;;8.67;5.27;;;2.70;73.20;;;2.94;60.08;97957.59;4948773;29;20098;-34
2022/02/13 07:19:23;;;;;;;10.53;5.60;;;2.70;72.80;;;2.98;60.06;97946.88;4949867;28;20057;-34
2022/02/13 07:21:51;;;;;;;7.53;4.70;;;2.80;72.80;;;2.98;60.20;97946.88;4949236;29;20061;-34
2022/02/13 07:24:18;;;;;;;10.17;5.23;;;2.80;73.00;;;3.00;60.00;97945.81;4949284;28;20410;-34
2022/02/13 07:26:46;;;;;;;8.17;5.37;;;2.80;72.70;;;3.04;60.10;97935.91;4949443;28;20372;-34
2022/02/13 07:29:14;;;;;;;7.77;5.30;;;2.90;72.80;;;3.08;60.09;97935.63;4948974;29;20050;-34
2022/02/13 07:31:42;;;;;;;10.87;5.70;;;2.90;72.80;;;3.12;60.02;97931.81;4949710;29;20059;-34
2022/02/13 07:34:10;;;;;;;8.80;5.57;;;2.90;72.70;;;3.17;60.05;97944.63;4949131;28;20175;-34
2022/02/13 07:36:38;;;;;;;8.37;4.73;;;3.00;73.50;;;3.20;60.17;97946.19;4949460;29;20051;-34
2022/02/13 07:39:06;;;;;;;11.40;5.90;;;3.00;72.60;;;3.23;59.75;97946.00;4948972;29;20365;-34
2022/02/13 07:41:34;;;;;;;7.80;5.20;;;3.10;72.60;;;3.30;59.88;97942.00;4949168;29;20252;-34
2022/02/13 07:44:03;;;;;;;9.83;5.40;;;3.10;72.60;;;3.34;59.87;97940.84;4964913;28;20051;-34
2022/02/13 07:46:31;;;;;;;10.17;5.70;;;3.20;72.60;;;3.35;60.20;97939.88;4948839;28;20055;-34
2022/02/13 07:49:00;;;;;;;7.13;5.17;;;3.20;72.50;;;3.41;59.91;97933.31;4949091;28;20051;-34
2022/02/13 07:51:28;;;;;;;7.93;5.33;;;3.30;72.50;;;3.43;60.27;97934.06;4948892;29;20051;-34
2022/02/13 07:53:56;;;;;;;9.00;5.37;;;3.40;72.30;;;3.50;59.92;97935.31;4947817;29;20047;-34
2022/02/13 07:56:24;;;;;;;12.37;6.50;;;3.40;72.10;;;3.53;60.10;97930.66;4950398;28;20056;-34
2022/02/13 07:58:52;;;;;;;9.23;5.67;;;3.50;71.90;;;3.56;59.82;97932.22;4949497;29;20360;-34
2022/02/13 08:01:20;;;;;;;9.73;5.90;;;3.50;71.90;;;3.64;59.93;97932.50;4948699;28;20065;-34
2022/02/13 08:03:48;;;;;;;8.73;5.23;;;3.60;71.80;;;3.74;60.05;97919.53;4949019;28;20051;-34
2022/02/13 08:06:18;;;;;;;7.43;5.77;;;3.70;71.70;;;3.79;59.79;97922.66;4947311;28;20059;-34
2022/02/13 08:08:48;;;;;;;9.57;5.43;;;3.80;71.50;;;3.85;59.96;97916.94;4950150;29;20245;-34
2022/02/13 08:11:18;;;;;;;9.60;5.53;;;3.90;71.50;;;3.91;59.82;97913.84;4948449;29;20367;-34
2022/02/13 08:13:46;;;;;;;9.47;6.20;;;3.90;71.60;;;3.93;59.74;97911.13;4948964;28;20059;-34
2022/02/13 08:16:14;;;;;;;8.80;5.93;;;3.90;71.60;;;3.97;60.16;97912.56;4947742;29;20248;-34
2022/02/13 08:18:42;;;;;;;8.87;6.23;;;4.00;71.70;;;4.01;59.58;97914.03;4948848;28;20065;-34
2022/02/13 08:21:10;;;;;;;8.03;5.33;;;4.00;71.60;;;4.04;60.06;97911.16;4948889;29;20047;-34
2022/02/13 08:23:38;;;;;;;8.30;6.10;;;4.00;71.70;;;4.07;60.04;97915.38;4947969;29;20050;-34
2022/02/13 08:26:06;;;;;;;11.43;6.30;;;4.00;71.90;;;4.11;60.24;97916.81;4948565;29;20237;-34
2022/02/13 08:28:35;;;;;;;12.60;6.07;;;4.10;71.90;;;4.11;59.90;97915.03;4948390;29;20046;-35
2022/02/13 08:31:04;;;;;;;12.33;5.93;;;4.10;72.00;;;4.19;59.71;97913.59;4948866;28;20051;-34
2022/02/13 08:33:32;;;;;;;9.20;6.10;;;4.20;72.90;;;4.26;60.34;97914.84;4949118;28;20098;-34
2022/02/13 08:36:00;;;;;;;13.67;6.67;;;4.20;73.10;;;4.34;60.21;97909.81;4947722;29;20694;-34
2022/02/13 08:38:28;;;;;;;11.53;6.57;;;4.30;72.50;;;4.43;60.59;97914.41;4948950;28;20337;-34
2022/02/13 08:40:55;;;;;;;12.07;7.50;;;4.40;72.10;;;4.47;59.89;97907.09;4948928;29;20035;-34
2022/02/13 08:43:23;;;;;;;11.10;6.60;;;4.50;71.80;;;4.50;60.12;97915.63;4947162;29;20055;-34
2022/02/13 08:45:51;;;;;;;10.33;5.83;;;4.50;71.70;;;4.53;59.52;97909.28;4947732;29;20580;-34
2022/02/13 08:48:20;;;;;;;10.23;6.30;;;4.50;71.40;;;4.56;59.82;97906.41;4949288;28;20051;-34
2022/02/13 08:50:49;;;;;;;10.27;5.90;;;4.60;71.40;;;4.63;59.79;97904.13;4948738;29;20065;-34
2022/02/13 08:53:17;;;;;;;12.73;6.33;;;4.60;71.30;;;4.66;59.55;97899.47;4947946;29;20058;-34
2022/02/13 08:55:45;;;;;;;9.80;5.80;;;4.70;71.30;;;4.73;59.17;97905.13;4948336;29;20069;-34
2022/02/13 08:58:13;;;;;;;12.03;5.53;;;4.70;71.40;;;4.80;59.76;97897.56;4949004;29;20465;-34
2022/02/13 09:00:41;;;;;;;8.97;5.13;;;4.80;71.30;;;4.85;60.16;97905.97;4936627;28;20716;-34
2022/02/13 09:03:09;;;;;;;12.50;6.50;;;4.80;71.30;;;4.87;60.11;97898.78;4940324;29;20586;-34
2022/02/13 09:05:36;;;;;;;10.73;6.67;;;4.80;71.10;;;4.89;59.11;97894.22;4936332;29;20046;-34
2022/02/13 09:08:05;;;;;;;12.13;6.80;;;4.80;70.60;;;4.91;59.24;97889.66;4939939;29;20057;-34
2022/02/13 09:10:33;;;;;;;10.50;6.60;;;4.90;71.00;;;4.92;59.35;97892.19;4935782;29;20053;-34
2022/02/13 09:13:01;;;;;;;10.30;6.50;;;4.90;70.60;;;4.91;58.66;97887.88;4938528;29;20051;-34
2022/02/13 09:15:30;;;;;;;11.50;6.53;;;5.00;70.20;;;4.97;59.00;97891.00;4937000;29;20049;-34
2022/02/13 09:17:58;;;;;;;13.00;6.03;;;5.00;70.30;;;5.03;58.99;97891.34;4937519;29;20051;-34
2022/02/13 09:20:26;;;;;;;15.33;6.30;;;5.00;70.30;;;5.07;59.62;97884.84;4932093;29;20040;-34
2022/02/13 09:22:55;;;;;;;13.27;6.10;;;5.10;70.30;;;5.12;58.66;97887.97;4929378;29;20048;-34
2022/02/13 09:25:23;;;;;;;10.30;5.90;;;5.20;70.10;;;5.18;59.06;97891.09;4928430;29;20062;-34
2022/02/13 09:27:51;;;;;;;10.67;6.37;;;5.20;69.80;;;5.21;59.37;97878.47;4929273;29;20081;-34
2022/02/13 09:30:18;;;;;;;11.80;5.90;;;5.30;70.00;;;5.27;59.69;97879.78;4929840;29;20048;-34
2022/02/13 09:32:46;;;;;;;9.60;6.60;;;5.30;70.00;;;5.34;59.45;97878.34;4929106;29;20055;-34
2022/02/13 09:35:15;;;;;;;11.00;7.07;;;5.40;70.00;;;5.40;58.82;97879.66;4928216;29;20055;-34
2022/02/13 09:37:43;;;;;;;11.50;6.23;;;5.40;69.70;;;5.42;58.96;97878.56;4929743;29;20081;-34
2022/02/13 09:40:11;;;;;;;10.23;6.50;;;5.50;69.40;;;5.46;59.13;97871.25;4929899;29;20064;-34
2022/02/13 09:42:42;;;;;;;9.67;6.40;;;5.50;69.20;;;5.50;58.80;97872.69;4928679;29;20050;-34
2022/02/13 09:45:10;;;;;;;10.37;5.90;;;5.60;69.50;;;5.58;59.03;97869.41;4931774;29;20353;-34
2022/02/13 09:47:39;;;;;;;13.73;7.77;;;5.60;69.40;;;5.62;58.54;97858.50;4932655;29;20065;-34
2022/02/13 09:50:08;;;;;;;12.20;6.07;;;5.70;69.30;;;5.69;57.90;97859.66;4933387;29;20059;-34
2022/02/13 09:52:37;;;;;;;13.03;7.33;;;5.70;68.90;;;5.77;58.11;97863.47;4932676;29;20081;-34
2022/02/13 09:55:05;;;;;;;9.57;6.10;;;5.80;68.90;;;5.83;58.05;97847.13;4931081;29;20179;-34
2022/02/13 10:00:19;;;;;;;7.77;5.30;;;5.90;68.90;;;5.99;58.71;97849.34;4932604;29;20391;-34
2022/02/13 10:02:47;;;;;;;8.70;5.87;;;6.00;69.00;;;6.05;57.84;97835.66;4933338;29;20048;-35
2022/02/13 10:05:21;;;;;;;9.93;6.10;;;6.10;68.50;;;6.05;57.64;97831.19;4933530;29;20085;-35
2022/02/13 10:07:52;;;;;;;10.52;5.78;;;6.10;67.60;;;6.07;57.72;97836.38;4932553;29;20056;-34
2022/02/13 10:10:25;;;;;;;12.33;6.67;;;6.10;67.90;;;6.09;57.15;97837.91;4933010;29;20059;-34
2022/02/13 10:12:53;;;;;;;13.23;5.23;;;6.20;67.80;;;6.15;58.35;97833.09;4932009;29;20052;-34
2022/02/13 10:15:30;;;;;;;8.43;5.17;;;6.20;67.90;;;6.21;57.43;97835.22;4931888;29;20513;-35
2022/02/13 10:18:07;;;;;;;9.73;6.03;;;6.20;68.10;;;6.26;57.11;97833.00;4932789;29;20063;-34
2022/02/13 10:20:42;;;;;;;12.90;6.00;;;6.30;67.70;;;6.37;57.01;97835.56;4931615;29;20059;-35
2022/02/13 10:23:15;;;;;;;9.97;5.73;;;6.40;68.00;;;6.42;57.04;97825.44;4932142;29;20043;-35
2022/02/13 10:25:44;;;;;;;13.03;7.07;;;6.50;67.20;;;6.50;57.58;97827.44;4932795;29;20066;-35
2022/02/13 10:28:16;;;;;;;8.00;5.33;;;6.50;67.20;;;6.52;57.43;97827.31;4932683;29;20268;-35
2022/02/13 10:30:46;;;;;;;12.10;6.37;;;6.50;67.20;;;6.53;56.69;97821.03;4931716;29;20345;-35
2022/02/13 10:33:19;;;;;;;8.93;5.43;;;6.60;66.80;;;6.53;56.22;97816.59;4932731;29;20055;-34
2022/02/13 10:36:13;;;;;;;10.18;5.85;;;6.60;65.40;;;6.57;55.75;97817.16;4931589;29;20622;-34
2022/02/13 10:38:43;;;;;;;10.50;5.90;;;6.70;65.80;;;6.62;56.65;97809.69;4931220;29;20073;-34